createdAt,value
2016-04-07T12:49:56.846Z,12680
2016-04-07T12:50:14.849Z,12844
2016-04-07T12:51:15.617Z,13096
2016-04-07T12:52:14.947Z,14200
2016-04-07T12:54:15.078Z,12916
2016-04-07T12:56:15.244Z,12348
2016-04-07T12:57:16.527Z,13148
2016-04-07T12:58:15.264Z,13164
2016-04-07T12:59:14.798Z,13200
2016-04-07T13:00:17.191Z,12616
2016-04-07T13:01:15.116Z,11940
2016-04-07T13:02:24.900Z,11612
2016-04-07T13:03:15.121Z,10280
2016-04-07T13:04:25.546Z,8968
2016-04-07T13:05:16.221Z,8992
2016-04-07T13:06:21.582Z,6468
2016-04-07T13:07:15.257Z,5924
2016-04-07T13:08:16.026Z,5436
2016-04-07T13:09:23.262Z,6004
2016-04-07T13:10:14.984Z,6420
2016-04-07T13:11:17.362Z,6888
2016-04-07T13:12:16.208Z,7216
2016-04-07T13:13:15.274Z,8212
2016-04-07T13:14:15.042Z,9776
2016-04-07T13:15:15.310Z,11272
2016-04-07T13:17:23.893Z,12376
2016-04-07T13:18:14.958Z,13100
2016-04-07T13:19:14.789Z,11940
2016-04-07T13:20:14.964Z,9284
2016-04-07T13:21:14.935Z,8848
2016-04-07T13:22:14.954Z,7968
2016-04-07T13:23:14.925Z,6780
2016-04-07T13:25:15.931Z,7228
2016-04-07T13:26:14.980Z,6400
2016-04-07T13:27:14.639Z,8164
2016-04-07T13:28:15.646Z,7084
2016-04-07T13:29:14.649Z,6444
2016-04-07T13:30:14.761Z,5816
2016-04-07T13:31:15.061Z,6428
2016-04-07T13:32:22.892Z,6976
2016-04-07T13:33:14.816Z,7032
2016-04-07T13:34:15.226Z,7108
2016-04-07T13:35:14.478Z,7308
2016-04-07T13:36:15.809Z,8048
2016-04-07T13:37:15.764Z,8452
2016-04-07T13:38:14.798Z,8584
2016-04-07T13:39:14.817Z,8424
2016-04-07T13:40:15.585Z,9772
